Time;durP1;ratioP1;P1;durP2;ratioP2;P2;SDS_P1;SDS_P2;PMS_P1;PMS_P2;Temp;Humidity;BMP_temperature;BMP_pressure;BME280_temperature;BME280_humidity;BME280_pressure;Samples;Min_cycle;Max_cycle;Signal;HPM_P1;HPM_P2
2024/01/15 00:01:48;;;;;;;25.48;12.35;;;-4.90;99.90;;;;;;5014328;28;20237;-78
2024/01/15 00:04:15;;;;;;;16.25;8.45;;;-4.80;99.90;;;;;;5004814;28;20203;-80
2024/01/15 00:06:42;;;;;;;19.38;11.48;;;-4.80;99.90;;;;;;5005519;28;20208;-80
2024/01/15 00:09:09;;;;;;;17.75;11.48;;;-4.90;99.90;;;;;;5016903;28;20254;-80
2024/01/15 00:11:36;;;;;;;23.58;12.10;;;-4.80;99.90;;;;;;5007316;28;20290;-79
2024/01/15 00:14:04;;;;;;;18.75;11.48;;;-4.80;99.90;;;;;;5046306;28;20257;-79
2024/01/15 00:16:31;;;;;;;26.65;12.35;;;-4.80;99.90;;;;;;5036489;28;20259;-78
2024/01/15 00:18:59;;;;;;;28.42;13.80;;;-5.00;99.90;;;;;;5003917;28;20216;-79
2024/01/15 00:21:27;;;;;;;24.35;12.50;;;-5.10;99.90;;;;;;5019623;28;20200;-79
2024/01/15 00:23:54;;;;;;;32.17;14.30;;;-5.00;99.90;;;;;;5005215;28;20211;-80
2024/01/15 00:26:21;;;;;;;24.70;11.10;;;-5.00;99.90;;;;;;5005492;28;20257;-78
2024/01/15 00:28:48;;;;;;;19.48;10.52;;;-5.00;99.90;;;;;;5004082;28;20253;-77
2024/01/15 00:31:17;;;;;;;23.02;11.80;;;-5.00;99.90;;;;;;5004635;28;20199;-80
2024/01/15 00:33:44;;;;;;;26.35;10.88;;;-4.90;99.90;;;;;;5002596;28;20199;-78
2024/01/15 00:36:14;;;;;;;20.85;12.98;;;-4.80;99.90;;;;;;5001509;28;20286;-79
2024/01/15 00:38:41;;;;;;;17.00;8.65;;;-4.70;99.90;;;;;;5014667;28;20291;-78
2024/01/15 00:41:08;;;;;;;25.83;11.88;;;-4.60;99.90;;;;;;5001969;28;20202;-78
2024/01/15 00:43:35;;;;;;;18.35;10.20;;;-4.60;99.90;;;;;;5003978;28;20203;-78
2024/01/15 00:46:03;;;;;;;23.40;10.50;;;-4.50;99.90;;;;;;5008374;28;20302;-78
2024/01/15 00:48:30;;;;;;;18.85;10.13;;;-4.50;99.90;;;;;;5016685;28;20299;-79
2024/01/15 00:50:57;;;;;;;21.08;9.85;;;-4.50;99.90;;;;;;5008827;28;20681;-79
2024/01/15 00:53:26;;;;;;;15.90;9.05;;;-4.50;99.90;;;;;;5046021;28;20257;-77
2024/01/15 00:55:53;;;;;;;23.45;11.95;;;-4.50;99.90;;;;;;5013615;28;20271;-77
2024/01/15 00:58:20;;;;;;;20.00;9.75;;;-4.40;99.90;;;;;;5017178;28;20290;-78
2024/01/15 01:00:47;;;;;;;19.63;10.48;;;-4.50;99.90;;;;;;5013119;28;20226;-79
2024/01/15 01:03:14;;;;;;;16.20;9.85;;;-4.60;99.90;;;;;;5004965;28;20280;-78
2024/01/15 01:05:41;;;;;;;21.17;9.68;;;-4.60;99.90;;;;;;5034104;28;20702;-79
2024/01/15 01:08:08;;;;;;;21.13;9.48;;;-4.60;99.90;;;;;;5010066;28;20264;-80
2024/01/15 01:10:37;;;;;;;16.35;9.50;;;-4.60;99.90;;;;;;5003453;28;20208;-80
2024/01/15 01:13:04;;;;;;;25.10;11.35;;;-4.60;99.90;;;;;;5010648;28;20224;-77
2024/01/15 01:15:31;;;;;;;20.40;10.65;;;-4.50;99.90;;;;;;5001178;28;20248;-77
2024/01/15 01:17:58;;;;;;;16.73;9.85;;;-4.40;99.90;;;;;;5004125;28;20723;-79
2024/01/15 01:20:25;;;;;;;21.15;11.57;;;-4.40;99.90;;;;;;5009724;28;20200;-79
2024/01/15 01:22:52;;;;;;;21.30;11.13;;;-4.30;99.90;;;;;;5030491;28;20199;-78
2024/01/15 01:25:19;;;;;;;16.33;9.27;;;-4.30;99.90;;;;;;5017858;28;20278;-78
2024/01/15 01:27:47;;;;;;;25.48;9.98;;;-4.30;99.90;;;;;;5001190;28;20695;-78
2024/01/15 01:30:14;;;;;;;19.92;9.93;;;-4.40;99.90;;;;;;4998593;28;20772;-78
2024/01/15 01:32:41;;;;;;;21.92;11.65;;;-4.50;99.90;;;;;;5020913;28;20210;-80
2024/01/15 01:35:08;;;;;;;20.65;11.48;;;-4.60;99.90;;;;;;5006671;28;20340;-77
2024/01/15 01:37:35;;;;;;;13.80;11.30;;;-4.70;99.90;;;;;;5006276;28;20288;-79
2024/01/15 01:40:02;;;;;;;17.63;11.70;;;-4.80;99.90;;;;;;5014888;28;20801;-78
2024/01/15 01:42:29;;;;;;;16.98;10.18;;;-4.80;99.90;;;;;;5010374;28;20771;-80
2024/01/15 01:44:57;;;;;;;24.55;11.38;;;-4.80;99.90;;;;;;5016531;28;20231;-79
2024/01/15 01:47:26;;;;;;;20.55;10.30;;;-4.80;99.90;;;;;;5004841;28;20240;-79
2024/01/15 01:49:53;;;;;;;18.98;9.77;;;-4.80;99.90;;;;;;5030536;28;20288;-80
2024/01/15 01:52:20;;;;;;;21.73;11.65;;;-4.90;99.90;;;;;;5012152;28;20208;-80
2024/01/15 01:54:47;;;;;;;23.63;13.13;;;-4.90;99.90;;;;;;5008501;28;20825;-79
2024/01/15 01:57:14;;;;;;;23.20;13.20;;;-4.90;99.90;;;;;;5005369;28;20844;-78
2024/01/15 01:59:41;;;;;;;16.30;9.77;;;-5.00;99.90;;;;;;4995556;28;20603;-78
2024/01/15 02:02:10;;;;;;;24.27;11.13;;;-5.10;99.90;;;;;;5015129;28;20251;-77
2024/01/15 02:04:37;;;;;;;21.65;11.80;;;-5.00;99.90;;;;;;5010905;28;20252;-77
2024/01/15 02:07:05;;;;;;;20.75;10.15;;;-5.10;99.90;;;;;;5006465;28;20210;-78
2024/01/15 02:09:32;;;;;;;28.38;13.25;;;-5.10;99.90;;;;;;5023561;28;20261;-78
2024/01/15 02:12:00;;;;;;;18.40;10.32;;;-5.20;99.90;;;;;;5013650;28;20281;-79
2024/01/15 02:14:27;;;;;;;20.83;11.60;;;-5.30;99.90;;;;;;5053466;28;20218;-78
2024/01/15 02:16:54;;;;;;;21.58;11.48;;;-5.20;99.90;;;;;;5003173;28;20304;-78
2024/01/15 02:19:22;;;;;;;22.95;13.25;;;-5.20;99.90;;;;;;5002875;28;20212;-79
2024/01/15 02:21:49;;;;;;;26.58;10.75;;;-5.20;99.90;;;;;;5028642;28;20220;-80
2024/01/15 02:24:17;;;;;;;29.27;15.00;;;-5.20;99.90;;;;;;5024214;28;20193;-78
2024/01/15 02:26:45;;;;;;;30.17;13.85;;;-5.10;99.90;;;;;;5012517;28;20733;-78
2024/01/15 02:29:12;;;;;;;27.27;14.20;;;-4.90;99.90;;;;;;5007514;28;20208;-78
2024/01/15 02:31:39;;;;;;;26.60;11.02;;;-4.70;99.90;;;;;;5001282;28;20231;-81
2024/01/15 02:34:06;;;;;;;29.20;12.70;;;-4.60;99.90;;;;;;5008926;28;20207;-78
2024/01/15 02:36:33;;;;;;;24.33;12.00;;;-4.50;99.90;;;;;;5005635;28;20234;-78
2024/01/15 02:39:00;;;;;;;20.70;11.00;;;-4.40;99.90;;;;;;5018845;28;20257;-79
2024/01/15 02:41:28;;;;;;;27.83;13.00;;;-4.30;99.90;;;;;;5031479;28;20662;-77
2024/01/15 02:43:55;;;;;;;31.40;15.65;;;-4.30;99.90;;;;;;5055338;28;20313;-78
2024/01/15 02:46:22;;;;;;;22.23;11.75;;;-4.30;99.90;;;;;;5017230;28;20259;-80
2024/01/15 02:48:49;;;;;;;14.35;11.20;;;-4.30;99.90;;;;;;5059883;28;20200;-81
2024/01/15 02:51:16;;;;;;;18.23;11.15;;;-4.30;99.90;;;;;;5092182;28;20223;-81
2024/01/15 02:53:43;;;;;;;26.52;13.07;;;-4.30;99.90;;;;;;5028817;28;20208;-82
2024/01/15 02:56:10;;;;;;;20.30;10.45;;;-4.30;99.90;;;;;;5055334;28;20252;-78
2024/01/15 02:58:39;;;;;;;18.77;10.70;;;-4.20;99.90;;;;;;5010851;28;20536;-80
2024/01/15 03:01:06;;;;;;;14.30;8.48;;;-4.10;99.90;;;;;;5035072;28;20227;-78
2024/01/15 03:03:33;;;;;;;14.95;9.63;;;-4.00;99.90;;;;;;5031605;28;20200;-78
2024/01/15 03:06:00;;;;;;;13.32;7.78;;;-3.60;99.90;;;;;;5009362;28;20204;-79
2024/01/15 03:08:29;;;;;;;12.10;8.27;;;-3.40;99.90;;;;;;5005487;28;20287;-80
2024/01/15 03:10:55;;;;;;;9.70;6.70;;;-3.00;99.90;;;;;;5007546;28;20203;-78
2024/01/15 03:13:22;;;;;;;10.93;6.10;;;-2.70;99.90;;;;;;5018140;28;20262;-80
2024/01/15 03:15:51;;;;;;;13.45;7.93;;;-2.50;99.90;;;;;;5007404;28;20227;-78
2024/01/15 03:18:18;;;;;;;10.63;6.53;;;-2.40;99.90;;;;;;5017623;28;20236;-80
2024/01/15 03:20:44;;;;;;;12.50;6.93;;;-2.30;99.90;;;;;;5023620;28;20254;-78
2024/01/15 03:23:11;;;;;;;9.00;7.05;;;-2.30;99.90;;;;;;5016050;28;20233;-78
2024/01/15 03:25:38;;;;;;;11.05;5.97;;;-2.40;99.90;;;;;;5010452;28;20214;-79
2024/01/15 03:28:06;;;;;;;11.75;6.68;;;-2.40;99.90;;;;;;5011608;28;20270;-78
2024/01/15 03:30:33;;;;;;;11.40;6.50;;;-2.50;99.90;;;;;;5011390;28;20203;-78
2024/01/15 03:33:01;;;;;;;16.33;6.53;;;-2.50;99.90;;;;;;5008612;28;20202;-78
2024/01/15 03:35:30;;;;;;;11.50;6.50;;;-2.50;99.90;;;;;;4995548;28;20208;-79
2024/01/15 03:37:57;;;;;;;10.93;6.38;;;-2.50;99.90;;;;;;5007399;28;20210;-80
2024/01/15 03:40:24;;;;;;;9.98;6.32;;;-2.40;99.90;;;;;;5021582;28;20234;-79
2024/01/15 03:42:51;;;;;;;10.77;7.38;;;-2.30;99.90;;;;;;5008693;28;20256;-78
2024/01/15 03:45:18;;;;;;;11.07;7.35;;;-2.20;99.90;;;;;;5024812;28;20298;-80
2024/01/15 03:47:45;;;;;;;13.27;6.82;;;-2.20;99.90;;;;;;5057757;28;20214;-80
2024/01/15 03:50:14;;;;;;;13.77;7.35;;;-2.10;99.90;;;;;;5004217;28;20264;-80
2024/01/15 03:52:41;;;;;;;10.80;7.47;;;-2.00;99.90;;;;;;5019465;28;20201;-79
2024/01/15 03:55:08;;;;;;;10.30;5.43;;;-1.90;99.90;;;;;;5007387;28;20264;-80
2024/01/15 03:57:35;;;;;;;10.52;6.50;;;-1.90;99.90;;;;;;5006282;28;20287;-81
2024/01/15 04:00:03;;;;;;;11.75;6.85;;;-1.80;99.90;;;;;;5006202;28;20652;-81
2024/01/15 04:02:30;;;;;;;8.95;6.38;;;-1.80;99.90;;;;;;5011237;28;20206;-79
2024/01/15 04:04:57;;;;;;;8.65;5.00;;;-1.80;99.90;;;;;;5005479;28;20214;-80
2024/01/15 04:07:25;;;;;;;9.50;6.20;;;-1.70;99.90;;;;;;5022080;28;20205;-81
2024/01/15 04:09:52;;;;;;;7.38;5.80;;;-1.70;99.90;;;;;;5005954;28;20199;-79
2024/01/15 04:12:19;;;;;;;9.25;5.75;;;-1.60;99.90;;;;;;5004626;28;20266;-80
2024/01/15 04:14:46;;;;;;;8.48;5.30;;;-1.60;99.90;;;;;;5023360;28;20211;-79
2024/01/15 04:17:13;;;;;;;12.63;5.38;;;-1.50;99.90;;;;;;5017604;28;20302;-80
2024/01/15 04:19:43;;;;;;;8.30;6.28;;;-1.50;99.90;;;;;;5009128;28;20205;-80
2024/01/15 04:22:10;;;;;;;7.45;5.28;;;-1.50;99.90;;;;;;5031317;28;20217;-80
2024/01/15 04:24:39;;;;;;;9.63;4.97;;;-1.50;99.90;;;;;;5010011;28;20671;-79
2024/01/15 04:27:06;;;;;;;9.77;5.72;;;-1.50;99.90;;;;;;5004184;28;20210;-80
2024/01/15 04:29:33;;;;;;;6.93;4.80;;;-1.50;99.90;;;;;;5004979;28;20322;-80
2024/01/15 04:32:00;;;;;;;8.05;5.75;;;-1.50;99.90;;;;;;5005996;28;20272;-79
2024/01/15 04:34:27;;;;;;;8.10;4.95;;;-1.50;99.90;;;;;;5017414;28;20207;-80
2024/01/15 04:36:54;;;;;;;10.07;5.10;;;-1.50;99.90;;;;;;5006750;28;20666;-79
2024/01/15 04:39:22;;;;;;;8.07;5.72;;;-1.50;99.90;;;;;;4993073;28;20208;-80
2024/01/15 04:41:50;;;;;;;11.15;5.43;;;-1.50;99.90;;;;;;5006969;28;20205;-80
2024/01/15 04:44:17;;;;;;;8.60;5.63;;;-1.50;99.90;;;;;;5012298;28;20202;-80
2024/01/15 04:46:44;;;;;;;7.65;4.82;;;-1.50;99.90;;;;;;5008767;28;20463;-81
2024/01/15 04:49:12;;;;;;;9.07;6.07;;;-1.50;99.90;;;;;;5020790;28;20199;-80
2024/01/15 04:51:38;;;;;;;8.02;5.32;;;-1.50;99.90;;;;;;5007139;28;20257;-81
2024/01/15 04:54:05;;;;;;;12.35;5.95;;;-1.60;99.90;;;;;;5039754;28;20735;-80
2024/01/15 04:56:32;;;;;;;5.97;5.30;;;-1.60;99.90;;;;;;5023938;28;20258;-81
2024/01/15 04:59:01;;;;;;;9.68;5.35;;;-1.60;99.90;;;;;;5014251;28;20272;-77
2024/01/15 05:01:32;;;;;;;11.93;6.32;;;-1.60;99.90;;;;;;5020751;28;20288;-81
2024/01/15 05:03:59;;;;;;;10.90;6.03;;;-1.60;99.90;;;;;;5028622;28;20221;-81
2024/01/15 05:06:26;;;;;;;7.57;4.72;;;-1.60;99.90;;;;;;5018893;28;20210;-81
2024/01/15 05:08:53;;;;;;;10.80;5.40;;;-1.60;99.90;;;;;;5031725;28;20200;-78
2024/01/15 05:11:20;;;;;;;9.40;6.63;;;-1.60;99.90;;;;;;5006445;28;20206;-81
2024/01/15 05:13:48;;;;;;;7.10;4.60;;;-1.60;99.90;;;;;;5015079;28;20955;-79
2024/01/15 05:16:16;;;;;;;7.65;4.53;;;-1.50;99.90;;;;;;5026197;28;20285;-79
2024/01/15 05:18:43;;;;;;;8.75;5.47;;;-1.50;99.90;;;;;;5048070;28;20281;-79
2024/01/15 05:21:10;;;;;;;6.07;4.50;;;-1.40;99.90;;;;;;5049349;28;20311;-78
2024/01/15 05:23:37;;;;;;;9.18;4.20;;;-1.40;99.90;;;;;;5026609;28;20789;-81
2024/01/15 05:26:05;;;;;;;6.50;4.40;;;-1.40;99.90;;;;;;5021078;28;20210;-78
2024/01/15 05:28:32;;;;;;;9.18;5.95;;;-1.40;99.90;;;;;;5010575;28;20202;-79
2024/01/15 05:30:58;;;;;;;6.60;4.97;;;-1.40;99.90;;;;;;5005187;28;20647;-78
2024/01/15 05:33:27;;;;;;;7.15;4.35;;;-1.40;99.90;;;;;;5005084;28;20660;-78
2024/01/15 05:35:54;;;;;;;5.60;3.28;;;-1.40;99.90;;;;;;5002336;28;20276;-78
2024/01/15 05:38:21;;;;;;;7.22;4.68;;;-1.50;99.90;;;;;;5003035;28;20210;-79
2024/01/15 05:40:48;;;;;;;5.72;3.45;;;-1.50;99.90;;;;;;5001395;28;20656;-80
2024/01/15 05:43:15;;;;;;;6.97;4.60;;;-1.50;99.90;;;;;;5008564;28;20252;-78
2024/01/15 05:45:44;;;;;;;9.60;6.43;;;-1.50;99.90;;;;;;5008097;28;20206;-78
2024/01/15 05:48:11;;;;;;;7.70;5.10;;;-1.50;99.90;;;;;;5009065;28;20210;-79
2024/01/15 05:50:40;;;;;;;8.60;6.47;;;-1.50;99.90;;;;;;5006595;28;20205;-78
2024/01/15 05:53:07;;;;;;;5.68;3.45;;;-1.50;99.90;;;;;;5006341;28;20207;-78
2024/01/15 05:55:34;;;;;;;9.88;4.47;;;-1.50;99.90;;;;;;5006186;28;20957;-79
2024/01/15 05:58:01;;;;;;;7.15;3.67;;;-1.50;99.90;;;;;;5011071;28;20261;-78
2024/01/15 06:00:28;;;;;;;11.27;5.28;;;-1.50;99.90;;;;;;5013894;28;20210;-79
2024/01/15 06:02:55;;;;;;;8.60;5.65;;;-1.50;99.90;;;;;;5003007;28;20259;-78
2024/01/15 06:05:21;;;;;;;9.77;5.35;;;-1.50;99.90;;;;;;5013371;28;20267;-79
2024/01/15 06:07:50;;;;;;;10.43;4.32;;;-1.60;99.90;;;;;;5030263;28;20201;-81
2024/01/15 06:10:17;;;;;;;6.30;3.72;;;-1.50;99.90;;;;;;5017100;28;20200;-77
2024/01/15 06:12:45;;;;;;;5.45;3.85;;;-1.60;99.90;;;;;;5008139;28;20740;-78
2024/01/15 06:15:12;;;;;;;9.60;4.68;;;-1.60;99.90;;;;;;5023693;28;20210;-78
2024/01/15 06:17:39;;;;;;;6.57;4.35;;;-1.70;99.90;;;;;;5024770;28;20242;-80
2024/01/15 06:20:09;;;;;;;7.10;4.28;;;-1.70;99.90;;;;;;4999887;28;20297;-78
2024/01/15 06:22:36;;;;;;;5.40;3.67;;;-1.60;99.90;;;;;;5024468;28;20269;-77
2024/01/15 06:25:05;;;;;;;6.18;4.07;;;-1.60;99.90;;;;;;5002935;28;20566;-78
2024/01/15 06:27:32;;;;;;;3.80;2.95;;;-1.60;99.90;;;;;;5000498;28;20830;-78
2024/01/15 06:29:59;;;;;;;8.35;3.92;;;-1.50;99.90;;;;;;5008088;28;20771;-80
2024/01/15 06:32:26;;;;;;;6.35;3.80;;;-1.50;99.90;;;;;;5015324;28;20238;-79
2024/01/15 06:34:53;;;;;;;4.97;3.85;;;-1.40;99.90;;;;;;5001638;28;20221;-78
2024/01/15 06:37:20;;;;;;;5.40;3.58;;;-1.50;99.90;;;;;;5004464;28;20996;-79
2024/01/15 06:39:47;;;;;;;4.80;3.55;;;-1.50;99.90;;;;;;5004807;28;20264;-79
2024/01/15 06:42:15;;;;;;;4.47;3.08;;;-1.50;99.90;;;;;;5008495;28;20257;-80
2024/01/15 06:44:42;;;;;;;7.82;4.03;;;-1.40;99.90;;;;;;5021399;28;20276;-80
2024/01/15 06:47:09;;;;;;;5.10;3.40;;;-1.40;99.90;;;;;;5008204;28;20210;-80
2024/01/15 06:49:36;;;;;;;3.60;3.20;;;-1.40;99.90;;;;;;5006436;28;20789;-76
2024/01/15 06:52:03;;;;;;;5.80;3.45;;;-1.30;99.90;;;;;;5020698;28;20453;-81
2024/01/15 06:54:30;;;;;;;6.80;3.90;;;-1.30;99.90;;;;;;5041259;28;20292;-81
2024/01/15 06:56:57;;;;;;;7.55;4.72;;;-1.30;99.90;;;;;;5035899;28;20235;-82
2024/01/15 06:59:25;;;;;;;5.85;4.82;;;-1.30;99.90;;;;;;5048062;28;20200;-81
2024/01/15 07:01:52;;;;;;;7.18;3.30;;;-1.30;99.90;;;;;;5023550;28;20263;-85
2024/01/15 07:04:19;;;;;;;7.60;4.30;;;-1.30;99.90;;;;;;5027479;28;20261;-82
2024/01/15 07:06:48;;;;;;;4.57;3.30;;;-1.20;99.90;;;;;;5046994;28;20265;-84
2024/01/15 07:09:15;;;;;;;10.53;5.00;;;-1.30;99.90;;;;;;5011575;28;20607;-81
2024/01/15 07:11:46;;;;;;;6.15;3.45;;;-1.20;99.90;;;;;;4999184;28;20533;-80
2024/01/15 07:14:16;;;;;;;7.53;4.78;;;-1.20;99.90;;;;;;5024504;28;20943;-82
2024/01/15 07:16:44;;;;;;;4.43;3.30;;;-1.20;99.90;;;;;;5012692;28;20271;-80
2024/01/15 07:19:11;;;;;;;4.50;2.85;;;-1.20;99.90;;;;;;5016539;28;20206;-81
2024/01/15 07:21:39;;;;;;;6.83;4.87;;;-1.20;99.90;;;;;;5025878;28;20215;-82
2024/01/15 07:24:06;;;;;;;5.28;4.55;;;-1.20;99.90;;;;;;5005630;28;20971;-82
2024/01/15 07:26:33;;;;;;;7.15;3.72;;;-1.20;99.90;;;;;;5005968;28;20208;-80
2024/01/15 07:29:00;;;;;;;6.82;3.80;;;-1.20;99.90;;;;;;5013286;28;20262;-79
2024/01/15 07:31:28;;;;;;;4.78;3.30;;;-1.00;99.90;;;;;;5010385;28;20276;-76
2024/01/15 07:33:56;;;;;;;4.57;2.88;;;-0.80;99.90;;;;;;5015327;28;20678;-77
2024/01/15 07:36:23;;;;;;;3.83;2.75;;;-0.70;99.90;;;;;;5012875;28;20201;-77
2024/01/15 07:38:50;;;;;;;2.97;2.67;;;-0.60;99.90;;;;;;5008855;28;21017;-78
2024/01/15 07:41:17;;;;;;;3.38;2.35;;;-0.60;99.90;;;;;;5009906;28;20546;-81
2024/01/15 07:43:44;;;;;;;4.28;2.90;;;-0.60;99.90;;;;;;4997164;28;20260;-78
2024/01/15 07:46:11;;;;;;;7.63;3.03;;;-0.50;99.90;;;;;;5013055;28;20263;-77
2024/01/15 07:48:38;;;;;;;2.75;2.40;;;-0.50;99.90;;;;;;5008001;28;20243;-78
2024/01/15 07:51:06;;;;;;;7.47;3.00;;;-0.50;99.90;;;;;;5005658;28;20207;-79
2024/01/15 07:53:33;;;;;;;6.80;3.80;;;-0.50;99.90;;;;;;5010555;28;20530;-81
2024/01/15 07:56:00;;;;;;;9.93;3.63;;;-0.50;99.90;;;;;;5008975;28;20234;-77
2024/01/15 07:58:27;;;;;;;7.63;3.70;;;-0.50;99.90;;;;;;5000165;28;20231;-79
2024/01/15 08:00:54;;;;;;;3.73;3.10;;;-0.50;99.90;;;;;;5023973;28;20245;-77
2024/01/15 08:03:21;;;;;;;5.05;3.53;;;-0.50;99.90;;;;;;5039318;27;20455;-79
2024/01/15 08:05:52;;;;;;;5.23;3.17;;;-0.40;99.90;;;;;;5007265;28;20641;-77
2024/01/15 08:08:21;;;;;;;4.50;2.75;;;-0.40;99.90;;;;;;5005935;28;20937;-79
2024/01/15 08:10:48;;;;;;;5.35;2.97;;;-0.40;99.90;;;;;;5029953;28;20203;-80
2024/01/15 08:13:15;;;;;;;8.27;4.35;;;-0.40;99.90;;;;;;5033109;28;20937;-77
2024/01/15 08:15:42;;;;;;;5.83;3.93;;;-0.30;99.90;;;;;;5055501;28;20231;-79
2024/01/15 08:18:09;;;;;;;5.57;4.38;;;-0.30;99.90;;;;;;5012986;28;20582;-76
2024/01/15 08:20:36;;;;;;;6.15;4.75;;;-0.30;99.90;;;;;;5025027;28;20647;-76
2024/01/15 08:23:03;;;;;;;8.27;3.67;;;-0.20;99.90;;;;;;5029871;28;20677;-76
2024/01/15 08:25:31;;;;;;;4.70;4.23;;;-0.20;99.90;;;;;;5021236;28;20869;-75
2024/01/15 08:27:59;;;;;;;4.30;3.47;;;-0.20;99.90;;;;;;5013955;28;20462;-75
2024/01/15 08:30:27;;;;;;;8.90;4.50;;;-0.10;99.90;;;;;;5004990;28;20447;-75
2024/01/15 08:32:54;;;;;;;5.50;3.83;;;0.00;99.90;;;;;;5000239;28;20473;-77
2024/01/15 08:35:22;;;;;;;4.87;4.37;;;0.00;99.90;;;;;;5005262;28;20537;-74
2024/01/15 08:37:50;;;;;;;6.60;5.10;;;0.10;99.90;;;;;;5006851;28;20527;-75
2024/01/15 08:40:17;;;;;;;8.70;4.47;;;0.10;99.90;;;;;;5009126;28;20466;-75
2024/01/15 08:42:46;;;;;;;3.43;3.13;;;0.10;99.90;;;;;;5018951;28;20203;-75
2024/01/15 08:45:13;;;;;;;5.30;4.80;;;0.10;99.90;;;;;;4997701;28;20581;-76
2024/01/15 08:47:40;;;;;;;9.40;6.60;;;0.20;99.90;;;;;;5018799;28;20450;-78
2024/01/15 08:50:10;;;;;;;3.80;2.60;;;0.20;99.90;;;;;;5007142;28;20446;-74
2024/01/15 08:52:37;;;;;;;5.63;3.87;;;0.20;99.90;;;;;;5006125;28;20518;-75
2024/01/15 08:55:07;;;;;;;7.63;4.70;;;0.30;99.90;;;;;;5009487;28;20501;-75
2024/01/15 08:57:33;;;;;;;2.93;2.73;;;0.30;99.90;;;;;;5030761;28;20482;-76
2024/01/15 09:00:02;;;;;;;4.80;3.27;;;0.40;99.90;;;;;;5029733;28;20457;-76
2024/01/15 09:02:29;;;;;;;12.77;8.10;;;0.40;99.90;;;;;;5004150;28;20850;-75
2024/01/15 09:04:56;;;;;;;4.13;2.53;;;0.60;99.90;;;;;;5003155;28;20552;-77
2024/01/15 09:07:25;;;;;;;3.17;2.77;;;0.60;99.90;;;;;;5007594;28;20523;-75
2024/01/15 09:09:52;;;;;;;6.80;2.33;;;0.50;99.90;;;;;;5005676;28;20474;-80
2024/01/15 09:12:20;;;;;;;6.37;3.93;;;0.50;99.90;;;;;;5010550;28;20815;-75
2024/01/15 09:14:47;;;;;;;2.90;1.83;;;0.50;99.90;;;;;;5047235;28;20489;-74
2024/01/15 09:17:16;;;;;;;4.97;3.13;;;0.60;99.90;;;;;;5033389;28;20479;-75
2024/01/15 09:19:43;;;;;;;9.20;5.33;;;0.60;99.90;;;;;;5024436;28;20482;-76
2024/01/15 09:22:09;;;;;;;8.03;4.87;;;0.60;99.90;;;;;;5029558;28;20483;-78
2024/01/15 09:24:36;;;;;;;5.70;2.30;;;0.70;99.90;;;;;;5036960;28;20454;-73
2024/01/15 09:27:04;;;;;;;2.53;1.90;;;0.70;99.90;;;;;;5003620;28;20454;-74
2024/01/15 09:29:31;;;;;;;4.07;3.70;;;0.70;99.90;;;;;;4996928;28;20462;-74
2024/01/15 09:31:58;;;;;;;2.55;1.45;;;0.70;99.90;;;;;;5004443;28;20235;-74
2024/01/15 09:34:27;;;;;;;3.70;2.47;;;0.70;99.90;;;;;;5016943;28;20252;-75
2024/01/15 09:36:54;;;;;;;2.33;1.60;;;0.70;99.90;;;;;;5010686;28;20294;-75
2024/01/15 09:39:22;;;;;;;3.37;1.90;;;0.60;99.90;;;;;;5010139;28;20276;-74
2024/01/15 09:41:50;;;;;;;2.20;1.93;;;0.60;99.90;;;;;;5032754;28;20503;-74
2024/01/15 09:44:18;;;;;;;2.87;1.47;;;0.50;99.90;;;;;;5039997;28;20447;-74
2024/01/15 09:46:45;;;;;;;3.37;2.50;;;0.50;99.90;;;;;;5033418;28;20466;-79
2024/01/15 09:49:12;;;;;;;5.60;2.30;;;0.50;99.90;;;;;;5031977;28;20458;-75
2024/01/15 09:51:41;;;;;;;2.95;2.00;;;0.50;99.90;;;;;;5011240;28;20477;-78
2024/01/15 09:54:08;;;;;;;2.77;1.83;;;0.40;99.90;;;;;;5011937;28;20674;-77
2024/01/15 09:56:35;;;;;;;1.50;1.40;;;0.40;99.90;;;;;;5007654;28;20918;-77
2024/01/15 09:59:03;;;;;;;2.60;1.83;;;0.40;99.90;;;;;;5005932;28;20224;-75
2024/01/15 10:01:33;;;;;;;2.93;2.57;;;0.40;99.90;;;;;;5018591;28;20473;-75
2024/01/15 10:04:00;;;;;;;3.77;2.13;;;0.40;99.90;;;;;;5023894;28;20970;-76
2024/01/15 10:06:28;;;;;;;2.63;2.10;;;0.40;99.90;;;;;;5009892;28;20554;-75
2024/01/15 10:08:59;;;;;;;3.00;1.83;;;0.40;99.90;;;;;;5022441;28;20299;-75
2024/01/15 10:11:26;;;;;;;2.50;1.88;;;0.40;99.90;;;;;;5019742;28;20253;-75
2024/01/15 10:13:54;;;;;;;10.27;2.28;;;0.40;99.90;;;;;;5053878;28;20845;-75
2024/01/15 10:16:21;;;;;;;5.43;3.07;;;0.50;99.90;;;;;;5079048;28;20682;-76
2024/01/15 10:18:48;;;;;;;2.87;2.60;;;0.50;99.90;;;;;;5006831;28;20972;-77
2024/01/15 10:21:15;;;;;;;2.53;2.00;;;0.50;99.90;;;;;;5029161;28;20473;-77
2024/01/15 10:23:43;;;;;;;2.13;1.55;;;0.50;99.90;;;;;;5007641;28;20218;-75
2024/01/15 10:26:11;;;;;;;1.48;1.38;;;0.50;99.90;;;;;;5016834;28;20295;-76
2024/01/15 10:28:39;;;;;;;1.73;1.37;;;0.50;99.90;;;;;;5007756;28;20210;-77
2024/01/15 10:31:06;;;;;;;3.40;1.63;;;0.60;99.90;;;;;;5003011;28;20534;-75
2024/01/15 10:33:33;;;;;;;2.28;1.35;;;0.80;99.90;;;;;;5020471;28;20458;-78
2024/01/15 10:36:01;;;;;;;3.20;1.80;;;0.90;99.90;;;;;;5011095;28;20879;-75
2024/01/15 10:38:28;;;;;;;3.90;2.07;;;1.00;99.90;;;;;;5006419;28;20490;-75
2024/01/15 10:40:56;;;;;;;4.37;2.23;;;1.00;99.90;;;;;;5050771;28;20511;-75
2024/01/15 10:43:24;;;;;;;1.77;1.67;;;1.20;99.90;;;;;;5020550;28;21015;-77
2024/01/15 10:45:52;;;;;;;2.80;1.43;;;1.20;99.90;;;;;;5016571;28;20236;-78
2024/01/15 10:48:20;;;;;;;3.23;1.37;;;1.10;99.90;;;;;;5049532;28;20463;-75
2024/01/15 10:50:48;;;;;;;2.10;1.83;;;1.10;99.90;;;;;;5031873;28;21231;-75
2024/01/15 10:53:17;;;;;;;2.50;2.00;;;1.10;99.90;;;;;;5039495;28;20442;-76
2024/01/15 10:55:44;;;;;;;1.70;0.93;;;1.00;99.90;;;;;;5010531;28;20845;-77
2024/01/15 10:58:11;;;;;;;1.77;1.30;;;1.00;99.90;;;;;;5023372;28;21024;-76
2024/01/15 11:00:40;;;;;;;1.13;0.90;;;1.00;99.90;;;;;;5026733;28;20455;-75
2024/01/15 11:03:07;;;;;;;2.70;1.13;;;1.10;99.90;;;;;;5019241;28;20610;-75
2024/01/15 11:05:35;;;;;;;3.40;1.60;;;1.10;99.90;;;;;;5004224;28;20450;-75
2024/01/15 11:08:02;;;;;;;4.63;0.87;;;1.20;99.90;;;;;;5034877;28;20541;-75
2024/01/15 11:10:48;;;;;;;2.73;1.20;;;1.10;99.90;;;;;;5003266;28;20522;-76
2024/01/15 11:13:16;;;;;;;1.90;1.17;;;1.10;99.90;;;;;;5007125;28;20462;-75
2024/01/15 11:16:01;;;;;;;3.63;1.67;;;1.20;99.90;;;;;;5012284;28;20528;-74
2024/01/15 11:18:29;;;;;;;1.93;1.00;;;1.10;99.90;;;;;;5005675;28;21022;-75
2024/01/15 11:21:23;;;;;;;1.00;0.87;;;1.20;99.90;;;;;;5020070;28;20500;-75
2024/01/15 11:23:51;;;;;;;2.67;1.47;;;1.10;99.90;;;;;;5017476;28;20469;-78
2024/01/15 11:26:31;;;;;;;2.60;1.20;;;1.20;99.90;;;;;;5019554;28;20534;-78
2024/01/15 11:29:00;;;;;;;3.50;0.83;;;1.10;99.90;;;;;;5008848;28;20882;-75
2024/01/15 11:31:58;;;;;;;1.13;0.90;;;1.10;99.90;;;;;;5023687;28;21106;-80
2024/01/15 11:34:52;;;;;;;2.20;0.90;;;1.10;99.90;;;;;;5007073;28;20462;-76
2024/01/15 11:37:20;;;;;;;1.67;1.20;;;1.10;99.90;;;;;;4999718;28;20977;-76
2024/01/15 11:39:47;;;;;;;1.10;0.70;;;1.30;99.90;;;;;;5006227;28;20518;-80
2024/01/15 11:42:15;;;;;;;1.37;1.00;;;1.20;99.90;;;;;;5031661;28;20569;-75
2024/01/15 11:44:43;;;;;;;2.10;1.23;;;1.20;99.90;;;;;;5053294;28;20558;-74
2024/01/15 11:47:13;;;;;;;1.60;0.80;;;1.20;99.90;;;;;;5033102;28;20473;-75
2024/01/15 11:50:00;;;;;;;1.73;0.90;;;1.20;99.90;;;;;;5026141;28;20840;-76
2024/01/15 11:52:29;;;;;;;1.00;0.90;;;1.20;99.90;;;;;;5016275;28;20542;-76
2024/01/15 11:55:03;;;;;;;1.20;0.87;;;1.30;99.90;;;;;;5028311;28;20227;-77
2024/01/15 11:57:39;;;;;;;1.20;0.80;;;1.30;99.90;;;;;;5021923;28;20447;-76
2024/01/15 12:00:09;;;;;;;1.17;1.00;;;1.30;99.90;;;;;;5021518;28;20486;-75
2024/01/15 12:02:38;;;;;;;0.87;0.70;;;1.30;99.90;;;;;;5042559;28;20455;-77
2024/01/15 12:05:05;;;;;;;2.07;1.17;;;1.30;99.90;;;;;;5029199;28;20489;-76
2024/01/15 12:07:32;;;;;;;0.90;0.60;;;1.30;99.90;;;;;;5068082;28;20464;-76
2024/01/15 12:09:59;;;;;;;1.23;0.70;;;1.30;99.90;;;;;;5024247;28;20447;-80
2024/01/15 12:12:38;;;;;;;1.43;0.63;;;1.30;99.90;;;;;;5020781;28;21030;-77
2024/01/15 12:15:05;;;;;;;0.70;0.70;;;1.30;99.90;;;;;;5043448;28;20462;-79
2024/01/15 12:17:32;;;;;;;0.90;0.70;;;1.30;99.90;;;;;;4999586;28;20961;-75
2024/01/15 12:20:01;;;;;;;1.40;0.80;;;1.30;99.90;;;;;;5004350;28;20490;-79
2024/01/15 12:22:29;;;;;;;1.37;1.07;;;1.30;99.90;;;;;;5044423;28;20495;-80
2024/01/15 12:24:57;;;;;;;1.53;0.70;;;1.20;99.90;;;;;;5005627;28;20533;-75
2024/01/15 12:27:24;;;;;;;0.80;0.70;;;1.30;99.90;;;;;;5004516;28;20541;-77
2024/01/15 12:29:53;;;;;;;1.90;0.60;;;1.30;99.90;;;;;;5003853;28;20490;-75
2024/01/15 12:32:21;;;;;;;0.70;0.40;;;1.20;99.90;;;;;;5050808;28;20451;-75
2024/01/15 12:34:49;;;;;;;1.70;0.60;;;1.20;99.90;;;;;;5009214;28;20558;-77
2024/01/15 12:37:19;;;;;;;0.80;0.50;;;1.20;99.90;;;;;;5008515;28;20512;-75
2024/01/15 12:39:47;;;;;;;2.20;0.70;;;1.10;99.90;;;;;;5003759;28;20597;-75
2024/01/15 12:42:16;;;;;;;1.77;0.80;;;1.10;99.90;;;;;;5006644;28;20459;-76
2024/01/15 12:44:43;;;;;;;1.50;0.93;;;1.00;99.90;;;;;;5005840;28;20455;-75
2024/01/15 12:47:10;;;;;;;1.53;0.77;;;1.00;99.90;;;;;;4999166;28;20551;-75
2024/01/15 12:49:39;;;;;;;1.90;0.80;;;1.00;99.90;;;;;;5012055;28;20500;-75